Time;durP1;ratioP1;P1;durP2;ratioP2;P2;SDS_P1;SDS_P2;PMS_P1;PMS_P2;Temp;Humidity;BMP_temperature;BMP_pressure;BME280_temperature;BME280_humidity;BME280_pressure;Samples;Min_cycle;Max_cycle;Signal;HPM_P1;HPM_P2
2022/04/04 00:00:15;;;;;;;5.33;4.72;;;;;;;2.29;66.52;100214.09;2803925;82;21020;-81
2022/04/04 00:04:18;;;;;;;6.10;5.15;;;;;;;2.26;66.61;100215.55;2829984;82;21109;-82
2022/04/04 00:08:20;;;;;;;8.60;5.45;;;;;;;2.33;66.27;100214.32;2813335;82;21043;-82
2022/04/04 00:12:21;;;;;;;7.40;5.30;;;;;;;2.34;66.33;100210.77;2817255;82;21888;-82
2022/04/04 00:16:23;;;;;;;9.05;5.50;;;;;;;2.34;66.45;100200.27;2785519;83;21652;-81
2022/04/04 00:20:25;;;;;;;9.35;5.58;;;;;;;2.32;66.47;100192.94;2807468;82;21134;-82
2022/04/04 00:24:27;;;;;;;6.33;5.78;;;;;;;2.34;66.42;100189.77;2794120;83;21035;-82
2022/04/04 00:28:28;;;;;;;5.70;4.35;;;;;;;2.37;66.20;100188.78;2803828;82;21055;-82
2022/04/04 00:32:30;;;;;;;6.83;6.15;;;;;;;2.43;66.07;100179.27;2817263;82;21047;-82
2022/04/04 00:36:31;;;;;;;6.58;5.30;;;;;;;2.40;66.33;100182.06;2834049;82;21622;-82
2022/04/04 00:40:33;;;;;;;8.40;5.50;;;;;;;2.41;66.39;100183.31;2802078;82;21625;-82
2022/04/04 00:44:34;;;;;;;6.97;5.72;;;;;;;2.42;66.36;100184.14;2804918;82;21625;-81
2022/04/04 00:48:36;;;;;;;9.18;5.67;;;;;;;2.42;66.64;100179.75;2826373;82;21051;-81
2022/04/04 00:52:38;;;;;;;5.30;4.80;;;;;;;2.47;66.54;100182.61;2808316;82;21115;-82
2022/04/04 00:56:39;;;;;;;6.92;5.90;;;;;;;2.45;66.58;100178.73;2832880;82;21063;-82
2022/04/04 01:00:42;;;;;;;9.70;5.33;;;;;;;2.57;66.73;100171.56;2801936;82;21053;-82
2022/04/04 01:04:43;;;;;;;6.87;4.62;;;;;;;2.62;66.63;100171.34;2813849;83;21039;-82
2022/04/04 01:08:45;;;;;;;6.87;6.12;;;;;;;2.71;66.97;100166.09;2818967;82;21638;-81
2022/04/04 01:12:53;;;;;;;6.28;4.90;;;;;;;2.76;67.08;100168.01;2811202;82;21469;-80
2022/04/04 01:16:54;;;;;;;8.03;4.85;;;;;;;2.83;67.41;100169.37;2823282;82;21586;-82
2022/04/04 01:20:56;;;;;;;9.38;6.42;;;;;;;2.92;67.52;100172.00;2804787;82;21071;-82
2022/04/04 01:24:59;;;;;;;4.58;4.28;;;;;;;2.92;67.36;100166.74;2844126;82;21043;-82
2022/04/04 01:29:00;;;;;;;6.70;5.58;;;;;;;2.90;67.33;100159.89;2821309;81;21078;-82
2022/04/04 01:33:02;;;;;;;7.87;5.58;;;;;;;2.95;67.69;100156.55;2799145;82;21037;-82
2022/04/04 01:37:04;;;;;;;6.55;5.75;;;;;;;2.92;67.75;100161.97;2767059;82;21004;-82
2022/04/04 01:41:06;;;;;;;5.42;5.03;;;;;;;3.03;68.08;100153.04;2717566;85;21033;-82
2022/04/04 01:45:09;;;;;;;6.87;5.53;;;;;;;3.12;68.06;100146.45;2769952;81;21032;-82
2022/04/04 01:49:11;;;;;;;8.73;5.30;;;;;;;3.13;68.04;100146.38;2767244;83;21767;-82
2022/04/04 01:53:29;;;;;;;5.55;4.92;;;;;;;3.25;68.20;100140.94;2770187;84;21591;-82
2022/04/04 01:57:31;;;;;;;6.78;4.58;;;;;;;3.36;67.97;100140.84;2730349;84;21057;-82
2022/04/04 02:01:34;;;;;;;5.95;5.45;;;;;;;3.45;68.04;100134.23;2794285;82;21084;-82
2022/04/04 02:05:36;;;;;;;5.28;4.80;;;;;;;3.48;68.10;100134.89;2806607;82;21098;-82
2022/04/04 02:09:37;;;;;;;8.65;5.87;;;;;;;3.50;68.03;100127.76;2837350;81;21577;-82
2022/04/04 02:13:40;;;;;;;6.22;5.58;;;;;;;3.54;68.00;100124.50;2807432;80;21087;-82
2022/04/04 02:17:41;;;;;;;6.87;4.33;;;;;;;3.56;68.13;100118.23;2801056;82;21071;-82
2022/04/04 02:21:43;;;;;;;11.28;4.42;;;;;;;3.64;68.26;100118.27;2828870;82;21008;-83
2022/04/04 02:25:46;;;;;;;6.17;5.10;;;;;;;3.66;68.30;100115.08;2830564;81;21630;-82
2022/04/04 02:29:47;;;;;;;6.50;5.05;;;;;;;3.64;68.41;100109.06;2817464;81;21066;-82
2022/04/04 02:33:50;;;;;;;9.25;5.50;;;;;;;3.66;68.32;100108.50;2815845;82;21039;-82
2022/04/04 02:37:51;;;;;;;7.92;5.75;;;;;;;3.66;68.56;100103.24;2811154;82;21012;-81
2022/04/04 02:41:55;;;;;;;4.25;3.85;;;;;;;3.68;68.51;100100.92;2834076;82;21032;-82
2022/04/04 02:45:56;;;;;;;7.78;5.22;;;;;;;3.64;68.63;100098.54;2831372;82;21044;-82
2022/04/04 02:49:58;;;;;;;8.60;5.37;;;;;;;3.66;68.58;100094.90;2825671;82;21040;-82
2022/04/04 02:53:59;;;;;;;9.33;6.22;;;;;;;3.70;68.37;100093.78;2822842;82;21030;-82
2022/04/04 02:58:01;;;;;;;7.92;5.12;;;;;;;3.73;68.40;100092.75;2851097;82;21036;-81
2022/04/04 03:02:04;;;;;;;7.50;4.97;;;;;;;3.73;68.34;100096.69;2823580;82;21016;-81
2022/04/04 03:06:06;;;;;;;9.00;5.00;;;;;;;3.70;68.53;100093.78;2816570;81;21146;-82
2022/04/04 03:10:09;;;;;;;6.70;5.37;;;;;;;3.61;68.56;100090.82;2804850;81;21728;-81
2022/04/04 03:14:10;;;;;;;6.55;5.00;;;;;;;3.61;68.85;100086.88;2813353;82;21012;-82
2022/04/04 03:18:12;;;;;;;7.10;6.40;;;;;;;3.53;68.97;100093.39;2821436;81;21052;-82
2022/04/04 03:22:14;;;;;;;8.45;6.37;;;;;;;3.46;69.01;100098.63;2791199;82;21040;-82
2022/04/04 03:26:16;;;;;;;6.87;6.17;;;;;;;3.33;69.25;100094.96;2824851;81;21082;-82
2022/04/04 03:30:21;;;;;;;6.60;5.67;;;;;;;3.23;69.41;100095.93;2853584;80;21018;-82
2022/04/04 03:34:23;;;;;;;7.55;5.15;;;;;;;3.13;69.92;100095.13;2824209;82;21044;-82
2022/04/04 03:38:25;;;;;;;7.67;6.45;;;;;;;2.98;70.28;100096.81;2821349;82;21032;-81
2022/04/04 03:42:27;;;;;;;7.00;5.95;;;;;;;2.85;70.65;100087.87;2739960;83;21075;-82
2022/04/04 03:46:28;;;;;;;8.18;5.85;;;;;;;2.86;70.64;100092.19;2758594;83;21110;-82
2022/04/04 03:50:30;;;;;;;10.32;6.45;;;;;;;2.75;71.14;100090.58;2815364;82;21004;-81
2022/04/04 03:54:31;;;;;;;9.85;6.58;;;;;;;2.69;71.40;100095.23;2805495;82;20988;-83
2022/04/04 03:58:33;;;;;;;5.97;5.40;;;;;;;2.64;71.44;100092.01;2809276;82;21018;-82
2022/04/04 04:02:34;;;;;;;7.03;6.17;;;;;;;2.54;72.01;100090.31;2827409;82;21078;-84
2022/04/04 04:06:36;;;;;;;6.25;5.67;;;;;;;2.53;71.92;100087.31;2835021;80;21650;-84
2022/04/04 04:10:38;;;;;;;13.00;6.50;;;;;;;2.51;72.28;100085.23;2810482;81;20996;-84
2022/04/04 04:14:40;;;;;;;6.00;5.35;;;;;;;2.42;72.73;100083.06;2814996;82;21028;-83
2022/04/04 04:18:42;;;;;;;7.45;5.62;;;;;;;2.40;72.89;100081.84;2810112;81;20996;-82
2022/04/04 04:22:45;;;;;;;9.23;5.55;;;;;;;2.38;73.17;100074.96;2805748;80;21639;-84
2022/04/04 04:26:47;;;;;;;9.28;5.65;;;;;;;2.39;73.30;100076.21;2827018;81;21095;-84
2022/04/04 04:30:48;;;;;;;8.13;7.33;;;;;;;2.40;73.36;100072.66;2822152;82;21599;-82
2022/04/04 04:34:50;;;;;;;7.12;5.92;;;;;;;2.42;73.31;100075.19;2756063;83;21080;-84
2022/04/04 04:38:51;;;;;;;8.75;5.65;;;;;;;2.39;73.40;100072.27;2750743;84;21031;-82
2022/04/04 04:42:54;;;;;;;6.72;5.83;;;;;;;2.40;73.46;100076.59;2795276;82;21044;-81
2022/04/04 04:46:55;;;;;;;7.62;6.20;;;;;;;2.48;73.33;100074.03;2837718;80;21055;-83
2022/04/04 04:50:56;;;;;;;7.28;6.12;;;;;;;2.51;73.32;100071.23;2817623;82;21039;-83
2022/04/04 04:55:00;;;;;;;7.78;4.83;;;;;;;2.90;72.73;100070.55;2825134;80;21038;-83
2022/04/04 04:59:02;;;;;;;7.45;6.65;;;;;;;3.51;70.94;100076.85;2836435;82;21113;-84
2022/04/04 05:07:24;;;;;;;8.85;7.47;;;;;;;4.47;67.74;100076.25;2802710;83;20996;-84
2022/04/04 05:11:25;;;;;;;6.03;5.35;;;;;;;4.89;66.05;100077.22;2825418;82;21032;-83
2022/04/04 05:15:27;;;;;;;7.83;5.35;;;;;;;5.25;65.02;100077.19;2819967;82;21072;-84
2022/04/04 05:19:28;;;;;;;5.78;5.22;;;;;;;5.70;63.76;100072.20;2826798;81;21174;-84
2022/04/04 05:23:30;;;;;;;7.80;5.95;;;;;;;6.06;62.66;100073.38;2847339;81;21022;-84
2022/04/04 05:27:32;;;;;;;9.03;5.80;;;;;;;6.29;61.87;100070.53;2809900;81;21040;-84
2022/04/04 05:31:34;;;;;;;5.83;4.95;;;;;;;6.52;61.20;100065.47;2833432;81;21076;-84
2022/04/04 05:35:36;;;;;;;5.42;3.77;;;;;;;6.75;60.16;100060.39;2816280;82;21009;-83
2022/04/04 05:39:38;;;;;;;10.90;7.05;;;;;;;7.00;59.69;100060.02;2820217;81;21047;-83
2022/04/04 05:43:39;;;;;;;8.95;6.03;;;;;;;7.10;59.70;100058.89;2829967;82;21642;-84
2022/04/04 05:47:41;;;;;;;10.95;6.08;;;;;;;7.34;59.58;100063.38;2818184;82;21095;-88
2022/04/04 05:51:43;;;;;;;6.58;5.83;;;;;;;7.12;59.04;100066.23;2835898;80;21004;-84
2022/04/04 05:55:45;;;;;;;5.35;4.25;;;;;;;7.13;59.44;100062.14;2839499;80;21039;-84
2022/04/04 05:59:46;;;;;;;8.13;5.47;;;;;;;7.21;59.34;100060.27;2835967;82;21758;-84
2022/04/04 06:03:48;;;;;;;7.65;6.72;;;;;;;7.27;59.91;100065.61;2798539;83;21086;-84
2022/04/04 06:07:49;;;;;;;7.08;5.55;;;;;;;7.56;59.56;100067.47;2747778;83;21109;-83
2022/04/04 06:11:50;;;;;;;7.50;5.47;;;;;;;7.75;58.64;100072.75;2736990;84;21048;-82
2022/04/04 06:15:52;;;;;;;6.65;5.85;;;;;;;8.02;58.87;100069.00;2753286;83;21057;-84
2022/04/04 06:19:55;;;;;;;5.15;4.47;;;;;;;8.04;58.28;100065.75;2740782;84;21054;-84
2022/04/04 06:23:56;;;;;;;5.05;4.55;;;;;;;8.14;58.34;100064.12;2754679;84;21008;-82
2022/04/04 06:28:03;;;;;;;6.22;4.10;;;;;;;8.28;57.96;100055.61;2729882;85;21051;-84
2022/04/04 06:32:01;;;;;;;9.05;5.53;;;;;;;8.22;58.12;100064.00;2752406;83;21001;-85
2022/04/04 06:36:03;;;;;;;9.10;5.15;;;;;;;8.20;57.88;100057.98;2766902;83;22055;-84
2022/04/04 06:40:06;;;;;;;6.60;5.12;;;;;;;8.28;59.07;100056.94;2760021;83;21104;-84
2022/04/04 06:44:07;;;;;;;7.83;5.87;;;;;;;8.23;59.02;100057.74;2795261;82;21039;-85
2022/04/04 06:48:09;;;;;;;6.22;5.00;;;;;;;8.31;57.93;100050.08;2826353;82;21047;-88
2022/04/04 06:52:11;;;;;;;6.05;4.60;;;;;;;8.26;58.24;100054.89;2821199;82;21059;-88
2022/04/04 06:56:13;;;;;;;13.18;5.92;;;;;;;8.30;58.96;100047.06;2827859;81;21038;-87
2022/04/04 07:00:16;;;;;;;5.78;5.25;;;;;;;8.22;58.13;100055.59;2833282;81;21510;-89
2022/04/04 07:04:17;;;;;;;5.08;4.58;;;;;;;8.19;58.14;100043.05;2839893;81;21145;-84
2022/04/04 07:08:19;;;;;;;6.08;5.00;;;;;;;8.07;58.26;100042.17;2835769;81;22280;-83
2022/04/04 07:12:20;;;;;;;7.42;5.22;;;;;;;8.10;58.51;100027.37;2845474;81;21075;-82
2022/04/04 07:16:22;;;;;;;5.30;4.80;;;;;;;8.12;58.39;100030.27;2826357;81;21007;-83
2022/04/04 07:20:24;;;;;;;5.83;4.62;;;;;;;8.14;58.64;100028.34;2842985;80;21074;-83
2022/04/04 07:24:26;;;;;;;6.47;4.53;;;;;;;8.07;58.43;100021.84;2813844;81;21550;-83
2022/04/04 07:28:27;;;;;;;5.08;4.12;;;;;;;8.05;58.68;100034.33;2811262;82;20999;-81
2022/04/04 07:32:29;;;;;;;4.50;4.05;;;;;;;8.18;57.90;100021.02;2830309;82;21012;-82
2022/04/04 07:36:30;;;;;;;4.92;4.00;;;;;;;8.29;58.32;100005.12;2814827;81;21043;-83
2022/04/04 07:40:32;;;;;;;5.20;4.65;;;;;;;8.39;57.88;99997.80;2853024;81;21823;-83
2022/04/04 07:44:34;;;;;;;4.33;3.75;;;;;;;8.38;58.05;99998.27;2852812;81;21013;-83
2022/04/04 07:48:38;;;;;;;6.65;3.98;;;;;;;8.38;57.17;99981.05;2835641;81;21585;-83
2022/04/04 07:52:40;;;;;;;3.65;2.95;;;;;;;8.24;56.38;99968.88;2840818;82;20970;-83
2022/04/04 07:56:42;;;;;;;10.80;4.00;;;;;;;8.44;56.53;99979.23;2856225;82;21683;-84
2022/04/04 08:00:44;;;;;;;4.35;3.55;;;;;;;8.55;57.62;99982.90;2867197;81;21073;-83
2022/04/04 08:04:46;;;;;;;4.85;3.42;;;;;;;8.42;56.32;99967.08;2822197;82;21013;-82
2022/04/04 08:08:47;;;;;;;5.03;3.22;;;;;;;8.29;55.73;99968.52;2833663;81;21095;-83
2022/04/04 08:12:52;;;;;;;3.08;2.85;;;;;;;8.28;56.23;99962.86;2812406;81;21035;-83
2022/04/04 08:16:54;;;;;;;3.40;3.08;;;;;;;8.25;54.46;99955.13;2855287;81;21022;-83
2022/04/04 08:20:57;;;;;;;3.20;2.90;;;;;;;8.39;55.93;99962.85;2845128;81;21438;-83
2022/04/04 08:24:59;;;;;;;5.22;3.30;;;;;;;8.61;55.59;99949.27;2818291;82;21017;-82
2022/04/04 08:29:00;;;;;;;2.85;2.40;;;;;;;8.79;54.84;99950.09;2828404;82;21556;-83
2022/04/04 08:33:02;;;;;;;3.52;2.30;;;;;;;8.90;54.18;99939.48;2849464;81;21069;-83
2022/04/04 08:37:03;;;;;;;10.10;3.47;;;;;;;8.92;53.14;99933.56;2880501;80;21065;-84
2022/04/04 08:41:06;;;;;;;5.97;3.77;;;;;;;8.84;52.97;99928.88;2740131;84;21059;-83
2022/04/04 08:45:08;;;;;;;3.00;2.80;;;;;;;8.87;54.40;99917.19;2813025;81;21069;-83
2022/04/04 08:49:10;;;;;;;4.72;2.67;;;;;;;8.94;54.11;99914.39;2870127;81;21113;-83
2022/04/04 08:53:13;;;;;;;3.05;2.85;;;;;;;9.18;56.13;99908.04;2869447;80;21720;-83
2022/04/04 08:57:16;;;;;;;6.55;3.05;;;;;;;9.30;53.00;99891.58;2821044;83;21003;-83
2022/04/04 09:01:21;;;;;;;4.00;2.95;;;;;;;9.24;51.41;99880.16;2814853;82;21054;-83
2022/04/04 09:05:22;;;;;;;4.17;2.70;;;;;;;9.19;51.40;99881.86;2822438;82;21134;-83
2022/04/04 09:09:37;;;;;;;5.72;3.00;;;;;;;9.28;53.92;99869.17;2816089;83;21035;-83
2022/04/04 09:13:39;;;;;;;4.22;3.22;;;;;;;9.43;53.22;99867.03;2816872;82;21047;-83
2022/04/04 09:17:45;;;;;;;3.60;3.17;;;;;;;9.33;51.76;99848.03;2836226;82;21718;-83
2022/04/04 09:21:48;;;;;;;3.00;2.67;;;;;;;9.22;52.62;99849.75;2825548;82;21040;-83
2022/04/04 09:25:50;;;;;;;3.00;2.10;;;;;;;9.45;52.22;99848.34;2798738;82;22016;-83
2022/04/04 09:29:58;;;;;;;8.83;2.67;;;;;;;9.56;50.88;99837.63;2773606;83;21050;-83
2022/04/04 09:34:03;;;;;;;4.10;3.70;;;;;;;10.00;52.38;99836.59;2776761;83;21027;-83
2022/04/04 09:38:10;;;;;;;3.50;3.17;;;;;;;9.83;49.55;99817.67;2764681;83;21034;-84
2022/04/04 09:42:20;;;;;;;4.55;4.15;;;;;;;9.47;50.40;99814.53;2772002;83;21158;-84
2022/04/04 09:46:22;;;;;;;5.67;5.10;;;;;;;9.43;50.73;99811.76;2777585;84;21529;-83
2022/04/04 09:50:46;;;;;;;5.22;4.67;;;;;;;9.32;51.21;99795.91;2783134;83;21167;-83
2022/04/04 09:54:51;;;;;;;9.03;3.75;;;;;;;9.33;51.60;99797.59;2804320;82;21011;-83
2022/04/04 09:58:52;;;;;;;8.33;5.83;;;;;;;9.54;49.71;99779.84;2741212;82;21045;-83
2022/04/04 10:02:57;;;;;;;4.53;4.12;;;;;;;9.80;50.85;99774.08;2759680;84;21040;-83
2022/04/04 10:07:05;;;;;;;6.33;4.90;;;;;;;10.14;50.85;99776.95;2748500;84;21040;-83
2022/04/04 10:11:10;;;;;;;5.00;4.50;;;;;;;10.09;49.46;99777.34;2743275;84;21022;-83
2022/04/04 10:15:11;;;;;;;5.22;4.60;;;;;;;9.95;49.43;99772.39;2779900;80;21015;-83
2022/04/04 10:19:14;;;;;;;6.87;5.33;;;;;;;10.12;50.70;99751.82;2820024;81;21573;-83
2022/04/04 10:23:15;;;;;;;5.15;4.65;;;;;;;10.28;49.60;99752.61;2817849;82;21554;-83
2022/04/04 10:27:20;;;;;;;7.83;6.28;;;;;;;10.18;49.14;99738.48;2842632;82;21135;-83
2022/04/04 10:31:27;;;;;;;7.47;5.80;;;;;;;10.18;49.23;99727.00;2763007;82;21116;-83
2022/04/04 10:35:31;;;;;;;5.87;4.65;;;;;;;10.09;49.64;99722.02;2759741;83;21586;-84
2022/04/04 10:39:44;;;;;;;6.22;5.62;;;;;;;10.48;49.76;99719.94;2838634;81;21066;-83
2022/04/04 10:43:49;;;;;;;6.12;4.83;;;;;;;10.71;49.43;99701.39;2764589;83;21038;-83
2022/04/04 10:47:56;;;;;;;8.73;5.55;;;;;;;10.55;47.52;99695.79;2828646;82;21554;-83
2022/04/04 10:51:58;;;;;;;5.22;4.50;;;;;;;10.52;47.21;99694.75;2759808;83;21050;-82
2022/04/04 10:56:00;;;;;;;4.65;4.20;;;;;;;10.32;46.84;99680.08;2735777;82;21015;-82
2022/04/04 11:00:06;;;;;;;6.50;4.97;;;;;;;10.36;47.59;99673.50;2789603;84;21056;-83
2022/04/04 11:04:24;;;;;;;5.40;4.72;;;;;;;10.32;47.51;99664.13;2791933;81;20993;-84
2022/04/04 11:08:33;;;;;;;5.08;4.58;;;;;;;10.25;48.34;99648.41;2762176;83;21083;-83
2022/04/04 11:13:04;;;;;;;4.22;3.80;;;;;;;10.63;48.77;99636.10;2759073;81;21043;-83
2022/04/04 11:17:19;;;;;;;3.98;3.47;;;;;;;10.97;46.34;99628.94;2819313;83;21019;-84
2022/04/04 11:21:40;;;;;;;6.40;4.97;;;;;;;10.79;45.60;99622.68;2823670;83;21067;-83
2022/04/04 11:25:54;;;;;;;6.25;4.17;;;;;;;11.11;47.65;99612.16;2828954;81;21042;-81
2022/04/04 11:29:58;;;;;;;3.50;3.20;;;;;;;11.12;46.61;99601.86;2844714;81;21550;-83
2022/04/04 11:33:59;;;;;;;3.95;3.52;;;;;;;10.97;44.99;99603.66;2840634;81;21009;-83
2022/04/04 11:38:11;;;;;;;5.12;3.62;;;;;;;10.59;43.91;99596.63;2783373;82;21087;-83
2022/04/04 11:42:11;;;;;;;6.33;3.00;;;;;;;10.49;45.54;99580.69;2800297;83;21018;-83
2022/04/04 11:46:19;;;;;;;5.78;2.72;;;;;;;10.40;44.16;99572.57;2795924;82;21035;-83
2022/04/04 11:50:19;;;;;;;;;;;;;;;10.14;44.38;99566.99;2829155;81;21054;-84
2022/04/04 11:54:21;;;;;;;4.95;3.33;;;;;;;10.03;44.94;99554.69;2836490;82;20098;-83
2022/04/04 11:58:25;;;;;;;6.55;3.20;;;;;;;10.09;45.86;99547.48;2826832;81;21185;-84
2022/04/04 12:02:30;;;;;;;3.90;2.80;;;;;;;10.43;44.92;99540.41;2847977;80;21117;-83
2022/04/04 12:06:31;;;;;;;5.00;3.12;;;;;;;10.75;44.47;99509.09;2829459;82;21056;-83
2022/04/04 12:10:36;;;;;;;3.35;2.98;;;;;;;10.66;43.18;99515.27;2845993;81;21039;-83
2022/04/04 12:14:40;;;;;;;3.10;2.50;;;;;;;10.79;43.94;99497.17;2846387;81;21027;-83
2022/04/04 12:18:42;;;;;;;3.00;2.27;;;;;;;10.77;43.96;99496.95;2816982;82;21031;-83
2022/04/04 12:27:15;;;;;;;3.33;2.33;;;;;;;10.54;43.05;99482.23;2851170;82;21060;-83
2022/04/04 12:31:19;;;;;;;5.83;2.80;;;;;;;10.54;44.50;99470.73;2865849;80;21079;-83
2022/04/04 12:35:21;;;;;;;3.33;2.62;;;;;;;10.50;44.26;99460.05;2872947;80;21169;-83
2022/04/04 12:39:24;;;;;;;6.95;2.27;;;;;;;10.45;43.25;99446.36;2843642;82;21054;-84
2022/04/04 12:43:27;;;;;;;2.65;2.25;;;;;;;10.67;44.12;99418.53;2822973;81;21095;-84
2022/04/04 12:47:28;;;;;;;4.97;2.77;;;;;;;10.79;44.27;99413.85;2817928;81;21442;-83
2022/04/04 12:51:31;;;;;;;3.05;2.55;;;;;;;10.85;42.17;99407.95;2817588;82;21041;-83
2022/04/04 12:55:34;;;;;;;6.00;2.85;;;;;;;11.06;43.74;99390.87;2833813;82;21550;-83
2022/04/04 12:59:58;;;;;;;3.90;2.55;;;;;;;11.07;44.11;99385.89;2853096;80;20995;-84
2022/04/04 13:04:02;;;;;;;3.90;2.80;;;;;;;11.24;42.94;99381.07;2858280;81;21623;-83
2022/04/04 13:08:05;;;;;;;3.95;2.67;;;;;;;11.32;43.05;99360.83;2855091;81;21041;-84
2022/04/04 13:12:08;;;;;;;3.55;2.35;;;;;;;11.24;42.34;99361.59;2856772;80;21034;-83
2022/04/04 13:16:14;;;;;;;2.40;1.95;;;;;;;11.39;43.52;99349.89;2814587;82;21063;-83
2022/04/04 13:20:17;;;;;;;2.58;2.45;;;;;;;11.40;41.82;99339.61;2836147;82;21039;-85
2022/04/04 13:24:19;;;;;;;3.52;2.40;;;;;;;11.38;41.75;99327.77;2820880;82;21490;-80
2022/04/04 13:28:20;;;;;;;14.43;2.50;;;;;;;11.55;41.08;99315.39;2796391;82;21151;-85
2022/04/04 14:12:17;;;;;;;3.42;3.10;;;;;;;11.48;40.25;99199.85;2848559;80;21052;-84
2022/04/04 14:16:18;;;;;;;5.37;2.47;;;;;;;11.24;40.42;99185.41;2811870;81;21023;-83
2022/04/04 14:20:19;;;;;;;3.27;2.75;;;;;;;11.07;41.02;99191.63;2784380;82;21048;-83
2022/04/04 14:24:21;;;;;;;2.95;2.42;;;;;;;11.06;41.76;99175.31;2789547;83;21091;-83
2022/04/04 14:28:28;;;;;;;3.98;3.25;;;;;;;10.99;41.13;99167.12;2786792;82;21552;-84
2022/04/04 14:32:26;;;;;;;9.00;3.67;;;;;;;10.86;41.63;99159.04;2771759;82;21055;-83
2022/04/04 14:36:28;;;;;;;3.85;3.02;;;;;;;10.74;42.70;99157.64;2798295;82;21658;-80
2022/04/04 14:40:29;;;;;;;3.10;2.77;;;;;;;10.72;42.90;99150.31;2778407;82;21051;-82
2022/04/04 14:53:55;;;;;;;4.77;2.47;;;;;;;10.98;42.54;99130.86;2775423;83;21508;-83
2022/04/04 14:57:56;;;;;;;6.33;2.87;;;;;;;10.95;41.68;99112.04;2789328;83;21614;-83
2022/04/04 15:01:58;;;;;;;2.98;2.65;;;;;;;10.91;41.55;99112.53;2765916;83;20999;-82
2022/04/04 15:06:00;;;;;;;6.55;3.25;;;;;;;10.88;42.38;99100.37;2768424;83;21134;-83
2022/04/04 15:10:06;;;;;;;5.03;3.83;;;;;;;10.72;41.68;99106.42;2780925;83;21041;-83
2022/04/04 15:14:08;;;;;;;3.52;3.15;;;;;;;10.68;41.41;99086.42;2766293;83;21153;-83
2022/04/04 15:18:09;;;;;;;4.00;3.62;;;;;;;10.46;40.60;99079.30;2771244;84;21606;-83
2022/04/04 15:22:11;;;;;;;4.72;3.33;;;;;;;10.40;40.90;99077.23;2765697;84;21067;-83
2022/04/04 15:26:14;;;;;;;4.33;3.40;;;;;;;10.25;41.96;99076.45;2860501;81;21056;-82
2022/04/04 15:30:17;;;;;;;5.28;4.00;;;;;;;10.07;41.46;99067.17;2876183;81;21903;-81
2022/04/04 15:34:19;;;;;;;3.70;2.55;;;;;;;10.01;42.18;99070.42;2820842;82;21052;-81
2022/04/04 15:38:20;;;;;;;3.12;2.83;;;;;;;9.93;42.03;99058.41;2815611;81;21011;-80
2022/04/04 15:42:22;;;;;;;5.30;3.47;;;;;;;9.92;42.71;99056.73;2795566;82;21035;-82
2022/04/04 15:46:27;;;;;;;4.97;4.25;;;;;;;9.82;42.88;99047.52;2824874;82;21581;-82
2022/04/04 15:50:27;;;;;;;5.40;3.25;;;;;;;9.80;43.89;99037.03;2806213;82;21086;-84
2022/04/04 15:54:28;;;;;;;4.72;3.87;;;;;;;9.69;43.20;99037.27;2795136;82;21068;-85
2022/04/04 15:58:30;;;;;;;5.83;3.87;;;;;;;9.58;43.52;99021.07;2805322;82;21070;-84
2022/04/04 16:02:32;;;;;;;10.65;4.35;;;;;;;9.49;42.93;99017.97;2803415;82;21626;-84
2022/04/04 16:06:33;;;;;;;4.83;3.52;;;;;;;9.43;43.41;99020.25;2824638;82;21480;-83
2022/04/04 16:10:35;;;;;;;4.65;3.50;;;;;;;9.43;44.30;99021.58;2836497;81;21046;-83
2022/04/04 16:14:36;;;;;;;4.00;3.22;;;;;;;9.37;43.88;99017.35;2829977;82;21019;-83
2022/04/04 16:18:39;;;;;;;7.00;4.40;;;;;;;9.40;44.99;99020.55;2842697;81;21071;-83
2022/04/04 16:22:43;;;;;;;4.30;3.87;;;;;;;9.26;43.98;99011.28;2768426;84;21082;-81
2022/04/04 16:26:44;;;;;;;6.35;4.45;;;;;;;9.23;44.90;99006.25;2816896;82;20995;-83
2022/04/04 16:30:46;;;;;;;7.37;5.33;;;;;;;9.15;44.94;98996.88;2803622;82;21091;-83
2022/04/04 16:34:48;;;;;;;7.15;4.62;;;;;;;9.04;44.66;98977.17;2809034;82;21024;-83
2022/04/04 16:38:49;;;;;;;5.85;4.10;;;;;;;8.98;44.77;98975.47;2778915;83;21641;-80
2022/04/04 16:53:10;;;;;;;5.65;4.53;;;;;;;8.79;45.50;98957.00;2877917;80;21035;-80
2022/04/04 16:57:12;;;;;;;10.18;4.78;;;;;;;8.67;45.83;98959.02;2875856;81;21029;-83
2022/04/04 17:01:14;;;;;;;12.23;5.30;;;;;;;8.60;45.59;98943.36;2892483;81;20987;-81
2022/04/04 17:05:15;;;;;;;8.28;5.97;;;;;;;8.63;46.32;98943.06;2843996;81;21078;-84
2022/04/04 17:09:17;;;;;;;6.37;5.55;;;;;;;8.63;46.66;98942.55;2887593;81;21047;-83
2022/04/04 17:13:19;;;;;;;6.90;5.20;;;;;;;8.52;46.58;98940.11;2877040;81;21086;-82
2022/04/04 17:17:20;;;;;;;6.50;5.25;;;;;;;8.52;47.12;98941.44;2764158;84;21035;-82
2022/04/04 17:21:22;;;;;;;8.18;5.58;;;;;;;8.40;47.22;98940.25;2770131;83;21577;-82
2022/04/04 17:25:23;;;;;;;13.18;6.33;;;;;;;8.35;47.65;98940.33;2793213;82;21029;-82
2022/04/04 17:29:26;;;;;;;8.23;6.72;;;;;;;8.21;48.08;98933.21;2762478;83;21020;-83
2022/04/04 17:33:30;;;;;;;10.48;6.65;;;;;;;8.15;48.58;98932.44;2772204;82;21648;-83
2022/04/04 17:37:31;;;;;;;7.62;5.80;;;;;;;8.07;49.07;98919.94;2789966;83;21069;-83
2022/04/04 17:41:33;;;;;;;12.93;7.42;;;;;;;7.99;49.59;98936.54;2777686;83;21554;-82
2022/04/04 17:45:35;;;;;;;8.20;5.60;;;;;;;7.95;50.06;98926.37;2803283;83;21022;-84
2022/04/04 17:49:37;;;;;;;16.35;6.35;;;;;;;7.84;50.11;98908.83;2790751;83;20972;-83
2022/04/04 17:53:39;;;;;;;6.85;5.58;;;;;;;7.79;50.88;98925.64;2739705;84;21004;-83
2022/04/04 17:57:40;;;;;;;9.93;5.22;;;;;;;7.72;51.53;98930.66;2814880;83;21034;-83
2022/04/04 18:01:43;;;;;;;5.60;5.10;;;;;;;7.63;51.58;98920.42;2811804;82;21545;-83
2022/04/04 18:05:44;;;;;;;5.28;4.78;;;;;;;7.68;52.04;98929.27;2798550;83;21130;-84
2022/04/04 18:09:46;;;;;;;6.97;6.25;;;;;;;7.65;52.13;98933.50;2769991;83;21199;-85
2022/04/04 18:13:47;;;;;;;7.37;6.75;;;;;;;7.64;52.34;98925.21;2789706;83;21161;-86
2022/04/04 18:17:48;;;;;;;8.30;6.05;;;;;;;7.66;52.63;98934.69;2759779;84;21151;-86
2022/04/04 18:21:51;;;;;;;6.12;5.53;;;;;;;7.60;52.95;98930.45;2766435;84;21179;-86
2022/04/04 18:25:53;;;;;;;6.42;5.83;;;;;;;7.52;53.70;98924.05;2789040;83;21005;-86
2022/04/04 18:29:54;;;;;;;6.45;5.05;;;;;;;7.52;55.25;98922.73;2751503;84;21060;-81
2022/04/04 18:33:58;;;;;;;12.37;5.87;;;;;;;7.36;57.72;98935.67;2757269;83;21104;-82
2022/04/04 18:38:00;;;;;;;9.08;6.33;;;;;;;7.15;62.16;98930.02;2778614;83;21607;-85
2022/04/04 18:42:02;;;;;;;10.43;6.30;;;;;;;6.90;64.58;98940.13;2853511;81;20996;-85
2022/04/04 18:46:06;;;;;;;9.25;6.45;;;;;;;6.64;68.75;98937.12;2860275;80;21606;-84
2022/04/04 18:50:08;;;;;;;7.12;6.45;;;;;;;6.35;70.73;98937.83;2864942;81;21027;-85
2022/04/04 18:54:10;;;;;;;8.18;5.85;;;;;;;6.20;72.22;98937.34;2848887;80;21008;-83
2022/04/04 18:58:11;;;;;;;6.95;5.40;;;;;;;6.05;73.58;98925.80;2858159;80;21023;-84
2022/04/04 19:02:13;;;;;;;8.10;6.65;;;;;;;5.85;75.47;98916.91;2854954;80;21010;-86
2022/04/04 19:06:14;;;;;;;6.30;5.37;;;;;;;5.70;77.22;98913.76;2836702;81;21019;-85
2022/04/04 19:10:16;;;;;;;9.68;7.47;;;;;;;5.59;77.77;98902.75;2861266;80;21522;-84
2022/04/04 19:14:18;;;;;;;14.40;6.85;;;;;;;5.48;78.73;98896.23;2858298;80;21007;-84
2022/04/04 19:18:20;;;;;;;8.30;6.92;;;;;;;5.41;79.21;98887.98;2867667;81;21054;-85
2022/04/04 19:22:21;;;;;;;7.95;6.08;;;;;;;5.44;79.61;98886.41;2838256;81;21068;-82
2022/04/04 19:26:23;;;;;;;6.92;5.15;;;;;;;5.49;80.03;98878.13;2875698;80;21082;-82
2022/04/04 19:30:24;;;;;;;8.53;6.75;;;;;;;5.43;80.10;98857.05;2860530;81;21526;-81
2022/04/04 19:34:26;;;;;;;6.33;5.22;;;;;;;5.44;80.41;98860.03;2878790;81;22018;-81
2022/04/04 19:38:27;;;;;;;6.20;5.60;;;;;;;5.39;81.36;98854.32;2842485;80;21039;-82
2022/04/04 19:42:29;;;;;;;5.87;5.17;;;;;;;5.38;81.34;98834.19;2859312;80;21074;-83
2022/04/04 19:46:36;;;;;;;6.72;4.92;;;;;;;5.35;82.34;98845.00;2859845;81;21492;-83
2022/04/04 19:50:38;;;;;;;4.35;3.95;;;;;;;5.38;81.77;98827.59;2773789;83;21184;-82
2022/04/04 19:54:40;;;;;;;8.63;5.05;;;;;;;5.37;81.66;98814.05;2819189;81;21601;-82
2022/04/04 19:58:41;;;;;;;4.87;4.42;;;;;;;5.35;81.01;98806.76;2831886;82;21084;-82
2022/04/04 20:02:43;;;;;;;5.65;4.83;;;;;;;5.40;81.09;98808.52;2761185;83;21010;-82
2022/04/04 20:06:44;;;;;;;5.53;5.03;;;;;;;5.37;80.42;98803.51;2817551;82;21107;-82
2022/04/04 20:10:46;;;;;;;5.12;3.85;;;;;;;5.44;80.59;98803.34;2810748;83;21133;-82
2022/04/04 20:14:47;;;;;;;7.40;5.70;;;;;;;5.46;79.91;98792.17;2828454;82;21531;-82